sensor_id;sensor_type;location;lat;lon;timestamp;pressure;altitude;pressure_sealevel;temperature;humidity
40117;BME280;25829;50.228;18.936;2022-10-31T00:00:14;98952.22;;;9.28;74.99
40117;BME280;25829;50.228;18.936;2022-10-31T00:03:17;98957.03;;;9.24;75.00
40117;BME280;25829;50.228;18.936;2022-10-31T00:06:18;98951.50;;;9.19;75.22
40117;BME280;25829;50.228;18.936;2022-10-31T00:09:18;98949.06;;;9.18;74.98
40117;BME280;25829;50.228;18.936;2022-10-31T00:12:19;98953.69;;;9.15;74.99
40117;BME280;25829;50.228;18.936;2022-10-31T00:15:20;98952.44;;;9.11;74.93
40117;BME280;25829;50.228;18.936;2022-10-31T00:18:21;98945.72;;;9.09;74.95
40117;BME280;25829;50.228;18.936;2022-10-31T00:21:21;98958.44;;;9.05;74.77
40117;BME280;25829;50.228;18.936;2022-10-31T00:24:22;98956.81;;;9.04;74.67
40117;BME280;25829;50.228;18.936;2022-10-31T00:27:23;98959.16;;;8.99;74.78
40117;BME280;25829;50.228;18.936;2022-10-31T00:30:24;98953.47;;;8.96;74.79
40117;BME280;25829;50.228;18.936;2022-10-31T00:33:25;98954.47;;;8.95;74.70
40117;BME280;25829;50.228;18.936;2022-10-31T00:36:26;98945.94;;;8.92;74.54
40117;BME280;25829;50.228;18.936;2022-10-31T00:39:26;98946.28;;;8.89;74.44
40117;BME280;25829;50.228;18.936;2022-10-31T00:42:27;98945.84;;;8.86;74.58
40117;BME280;25829;50.228;18.936;2022-10-31T00:45:30;98946.06;;;8.84;74.39
40117;BME280;25829;50.228;18.936;2022-10-31T00:48:31;98956.78;;;8.83;74.75
40117;BME280;25829;50.228;18.936;2022-10-31T00:51:32;98952.84;;;8.79;74.40
40117;BME280;25829;50.228;18.936;2022-10-31T00:54:33;98948.78;;;8.76;74.71
40117;BME280;25829;50.228;18.936;2022-10-31T00:57:34;98958.88;;;8.73;74.70
40117;BME280;25829;50.228;18.936;2022-10-31T01:00:37;98957.41;;;8.70;74.86
40117;BME280;25829;50.228;18.936;2022-10-31T01:03:38;98962.03;;;8.68;74.71
40117;BME280;25829;50.228;18.936;2022-10-31T01:06:44;98949.44;;;8.63;74.48
40117;BME280;25829;50.228;18.936;2022-10-31T01:09:44;98956.41;;;8.56;74.89
40117;BME280;25829;50.228;18.936;2022-10-31T01:12:48;98951.31;;;8.55;74.98
40117;BME280;25829;50.228;18.936;2022-10-31T01:15:54;98954.16;;;8.53;74.86
40117;BME280;25829;50.228;18.936;2022-10-31T01:18:55;98955.53;;;8.49;75.27
40117;BME280;25829;50.228;18.936;2022-10-31T01:21:56;98957.34;;;8.49;74.99
40117;BME280;25829;50.228;18.936;2022-10-31T01:24:56;98957.94;;;8.51;75.17
40117;BME280;25829;50.228;18.936;2022-10-31T01:27:57;98961.78;;;8.48;74.96
40117;BME280;25829;50.228;18.936;2022-10-31T01:31:06;98958.97;;;8.50;74.97
40117;BME280;25829;50.228;18.936;2022-10-31T01:34:13;98958.31;;;8.48;75.01
40117;BME280;25829;50.228;18.936;2022-10-31T01:37:14;98956.06;;;8.44;75.15
40117;BME280;25829;50.228;18.936;2022-10-31T01:40:15;98958.06;;;8.42;75.06
40117;BME280;25829;50.228;18.936;2022-10-31T01:43:16;98961.69;;;8.41;74.73
40117;BME280;25829;50.228;18.936;2022-10-31T01:46:37;98959.22;;;8.40;75.05
40117;BME280;25829;50.228;18.936;2022-10-31T01:49:43;98955.53;;;8.34;75.16
40117;BME280;25829;50.228;18.936;2022-10-31T01:52:47;98958.69;;;8.30;74.90
40117;BME280;25829;50.228;18.936;2022-10-31T01:55:49;98957.22;;;8.27;74.96
40117;BME280;25829;50.228;18.936;2022-10-31T01:58:50;98953.78;;;8.27;74.78
40117;BME280;25829;50.228;18.936;2022-10-31T02:01:52;98953.78;;;8.27;75.22
40117;BME280;25829;50.228;18.936;2022-10-31T02:04:53;98948.53;;;8.27;74.89
40117;BME280;25829;50.228;18.936;2022-10-31T02:11:03;98951.06;;;8.20;74.82
40117;BME280;25829;50.228;18.936;2022-10-31T02:14:04;98955.03;;;8.16;74.88
40117;BME280;25829;50.228;18.936;2022-10-31T02:17:05;98954.59;;;8.12;75.08
40117;BME280;25829;50.228;18.936;2022-10-31T02:23:41;98954.94;;;8.09;74.69
40117;BME280;25829;50.228;18.936;2022-10-31T02:27:27;98950.22;;;8.05;74.96
40117;BME280;25829;50.228;18.936;2022-10-31T02:30:24;98959.47;;;8.01;74.98
40117;BME280;25829;50.228;18.936;2022-10-31T02:33:53;98962.09;;;8.01;74.91
40117;BME280;25829;50.228;18.936;2022-10-31T02:40:48;98973.66;;;7.91;74.43
40117;BME280;25829;50.228;18.936;2022-10-31T02:50:18;98967.84;;;7.81;74.81
40117;BME280;25829;50.228;18.936;2022-10-31T02:53:20;98970.19;;;7.76;74.67
40117;BME280;25829;50.228;18.936;2022-10-31T02:56:21;98969.69;;;7.72;74.89
40117;BME280;25829;50.228;18.936;2022-10-31T02:59:22;98969.25;;;7.69;75.10
40117;BME280;25829;50.228;18.936;2022-10-31T03:06:02;98969.84;;;7.71;75.12
40117;BME280;25829;50.228;18.936;2022-10-31T03:09:13;98977.28;;;7.67;74.35
40117;BME280;25829;50.228;18.936;2022-10-31T03:12:36;98972.56;;;7.63;74.89
40117;BME280;25829;50.228;18.936;2022-10-31T03:15:51;98975.53;;;7.60;74.97
40117;BME280;25829;50.228;18.936;2022-10-31T03:18:58;98981.59;;;7.60;74.93
40117;BME280;25829;50.228;18.936;2022-10-31T03:22:14;98971.44;;;7.57;75.05
40117;BME280;25829;50.228;18.936;2022-10-31T03:25:18;98973.78;;;7.52;75.11
40117;BME280;25829;50.228;18.936;2022-10-31T03:28:23;98979.19;;;7.50;74.85
40117;BME280;25829;50.228;18.936;2022-10-31T03:31:35;98983.63;;;7.50;74.41
40117;BME280;25829;50.228;18.936;2022-10-31T03:34:41;98985.78;;;7.46;74.85
40117;BME280;25829;50.228;18.936;2022-10-31T03:37:44;98992.06;;;7.45;74.71
40117;BME280;25829;50.228;18.936;2022-10-31T03:40:51;98991.38;;;7.43;74.71
40117;BME280;25829;50.228;18.936;2022-10-31T03:43:57;98987.31;;;7.41;74.71
40117;BME280;25829;50.228;18.936;2022-10-31T03:47:00;98985.06;;;7.38;74.99
40117;BME280;25829;50.228;18.936;2022-10-31T03:50:06;98988.84;;;7.35;74.78
40117;BME280;25829;50.228;18.936;2022-10-31T03:53:22;98997.72;;;7.34;74.36
40117;BME280;25829;50.228;18.936;2022-10-31T03:56:35;98998.19;;;7.30;74.46
40117;BME280;25829;50.228;18.936;2022-10-31T03:59:40;99001.00;;;7.28;75.00
40117;BME280;25829;50.228;18.936;2022-10-31T04:02:57;99000.53;;;7.24;75.08
40117;BME280;25829;50.228;18.936;2022-10-31T04:06:08;98998.06;;;7.23;75.23
40117;BME280;25829;50.228;18.936;2022-10-31T04:09:10;99004.66;;;7.19;75.05
40117;BME280;25829;50.228;18.936;2022-10-31T04:12:15;99006.47;;;7.18;74.80
40117;BME280;25829;50.228;18.936;2022-10-31T04:15:32;99009.63;;;7.14;75.09
40117;BME280;25829;50.228;18.936;2022-10-31T04:18:34;99012.06;;;7.15;75.41
40117;BME280;25829;50.228;18.936;2022-10-31T04:21:36;99005.81;;;7.16;74.77
40117;BME280;25829;50.228;18.936;2022-10-31T04:24:39;99008.81;;;7.13;74.40
40117;BME280;25829;50.228;18.936;2022-10-31T04:27:40;99010.97;;;7.10;74.67
40117;BME280;25829;50.228;18.936;2022-10-31T04:30:43;99014.75;;;7.07;74.97
40117;BME280;25829;50.228;18.936;2022-10-31T04:33:43;99012.44;;;7.04;74.88
40117;BME280;25829;50.228;18.936;2022-10-31T04:36:45;99008.19;;;7.03;74.81
40117;BME280;25829;50.228;18.936;2022-10-31T04:39:49;99011.97;;;7.00;74.97
40117;BME280;25829;50.228;18.936;2022-10-31T04:43:22;99018.56;;;6.96;75.12
40117;BME280;25829;50.228;18.936;2022-10-31T04:46:23;99012.31;;;6.97;75.00
40117;BME280;25829;50.228;18.936;2022-10-31T04:49:23;99022.16;;;6.95;75.01
40117;BME280;25829;50.228;18.936;2022-10-31T04:52:24;99012.84;;;6.93;74.73
40117;BME280;25829;50.228;18.936;2022-10-31T04:55:26;99016.41;;;6.92;75.09
40117;BME280;25829;50.228;18.936;2022-10-31T04:58:59;99014.97;;;6.89;74.75
40117;BME280;25829;50.228;18.936;2022-10-31T05:02:03;99011.53;;;6.89;74.99
40117;BME280;25829;50.228;18.936;2022-10-31T05:05:20;99014.16;;;6.89;74.76
40117;BME280;25829;50.228;18.936;2022-10-31T05:08:21;99009.06;;;6.87;74.83
40117;BME280;25829;50.228;18.936;2022-10-31T05:11:27;99008.59;;;6.84;74.89
40117;BME280;25829;50.228;18.936;2022-10-31T05:14:31;99012.56;;;6.79;74.65
40117;BME280;25829;50.228;18.936;2022-10-31T05:17:51;99011.88;;;6.77;74.95
40117;BME280;25829;50.228;18.936;2022-10-31T05:21:10;99020.09;;;6.74;74.86
40117;BME280;25829;50.228;18.936;2022-10-31T05:24:16;99022.09;;;6.72;74.90
40117;BME280;25829;50.228;18.936;2022-10-31T05:27:21;99024.03;;;6.70;74.96
40117;BME280;25829;50.228;18.936;2022-10-31T05:30:26;99031.09;;;6.70;74.59
40117;BME280;25829;50.228;18.936;2022-10-31T05:33:27;99027.66;;;6.69;75.17
40117;BME280;25829;50.228;18.936;2022-10-31T05:36:47;99035.69;;;6.68;74.70
40117;BME280;25829;50.228;18.936;2022-10-31T05:39:53;99040.13;;;6.67;75.30
40117;BME280;25829;50.228;18.936;2022-10-31T05:42:55;99043.91;;;6.65;75.15
40117;BME280;25829;50.228;18.936;2022-10-31T05:45:56;99045.53;;;6.66;75.15
40117;BME280;25829;50.228;18.936;2022-10-31T05:49:15;99046.53;;;6.65;75.31
40117;BME280;25829;50.228;18.936;2022-10-31T05:52:36;99051.09;;;6.63;74.45
40117;BME280;25829;50.228;18.936;2022-10-31T05:56:03;99049.47;;;6.62;74.91
40117;BME280;25829;50.228;18.936;2022-10-31T05:59:03;99067.50;;;6.65;74.50
40117;BME280;25829;50.228;18.936;2022-10-31T06:02:04;99057.84;;;6.65;74.74
40117;BME280;25829;50.228;18.936;2022-10-31T06:05:29;99064.69;;;6.66;74.90
40117;BME280;25829;50.228;18.936;2022-10-31T06:08:30;99064.53;;;6.68;74.90
40117;BME280;25829;50.228;18.936;2022-10-31T06:11:35;99064.69;;;6.66;74.78
40117;BME280;25829;50.228;18.936;2022-10-31T06:14:36;99067.31;;;6.66;74.90
40117;BME280;25829;50.228;18.936;2022-10-31T06:17:37;99066.50;;;6.66;74.89
40117;BME280;25829;50.228;18.936;2022-10-31T06:20:56;99066.66;;;6.64;74.97
40117;BME280;25829;50.228;18.936;2022-10-31T06:23:57;99068.63;;;6.70;75.38
40117;BME280;25829;50.228;18.936;2022-10-31T06:27:24;99068.13;;;6.75;75.45
40117;BME280;25829;50.228;18.936;2022-10-31T06:30:25;99068.63;;;6.78;75.37
40117;BME280;25829;50.228;18.936;2022-10-31T06:33:26;99069.91;;;6.83;75.40
40117;BME280;25829;50.228;18.936;2022-10-31T06:36:32;99079.06;;;6.87;75.34
40117;BME280;25829;50.228;18.936;2022-10-31T06:39:33;99072.69;;;6.89;75.16
40117;BME280;25829;50.228;18.936;2022-10-31T06:42:34;99077.41;;;6.94;75.23
40117;BME280;25829;50.228;18.936;2022-10-31T06:45:36;99084.63;;;6.92;75.58
40117;BME280;25829;50.228;18.936;2022-10-31T06:48:54;99077.91;;;6.97;75.61
40117;BME280;25829;50.228;18.936;2022-10-31T06:52:14;99084.91;;;7.05;75.88
40117;BME280;25829;50.228;18.936;2022-10-31T06:55:15;99080.94;;;7.17;76.22
40117;BME280;25829;50.228;18.936;2022-10-31T06:58:16;99086.97;;;7.26;75.89
40117;BME280;25829;50.228;18.936;2022-10-31T07:01:19;99086.75;;;7.36;75.80
40117;BME280;25829;50.228;18.936;2022-10-31T07:04:20;99090.19;;;7.44;76.33
40117;BME280;25829;50.228;18.936;2022-10-31T07:07:22;99085.88;;;7.52;75.86
40117;BME280;25829;50.228;18.936;2022-10-31T07:10:25;99091.59;;;7.55;76.22
40117;BME280;25829;50.228;18.936;2022-10-31T07:13:33;99087.28;;;7.62;76.73
40117;BME280;25829;50.228;18.936;2022-10-31T07:16:41;99093.66;;;7.76;76.32
40117;BME280;25829;50.228;18.936;2022-10-31T07:19:42;99093.22;;;7.87;76.25
40117;BME280;25829;50.228;18.936;2022-10-31T07:22:44;99097.09;;;8.00;76.77
40117;BME280;25829;50.228;18.936;2022-10-31T07:25:46;99099.78;;;8.14;76.88
40117;BME280;25829;50.228;18.936;2022-10-31T07:28:54;99094.75;;;8.28;76.96
40117;BME280;25829;50.228;18.936;2022-10-31T07:31:57;99104.50;;;8.42;77.39
40117;BME280;25829;50.228;18.936;2022-10-31T07:35:01;99100.25;;;8.56;77.69
40117;BME280;25829;50.228;18.936;2022-10-31T07:38:19;99103.72;;;8.71;77.73
40117;BME280;25829;50.228;18.936;2022-10-31T07:41:21;99101.94;;;8.86;78.20
40117;BME280;25829;50.228;18.936;2022-10-31T07:44:22;99099.47;;;9.00;78.21
40117;BME280;25829;50.228;18.936;2022-10-31T07:47:54;99102.28;;;9.13;78.41
40117;BME280;25829;50.228;18.936;2022-10-31T07:51:13;99102.47;;;9.26;78.49
40117;BME280;25829;50.228;18.936;2022-10-31T07:54:33;99101.66;;;9.40;78.38
40117;BME280;25829;50.228;18.936;2022-10-31T07:57:34;99102.19;;;9.51;78.41
40117;BME280;25829;50.228;18.936;2022-10-31T08:00:36;99100.06;;;9.61;78.25
40117;BME280;25829;50.228;18.936;2022-10-31T08:03:37;99099.78;;;9.71;78.13
40117;BME280;25829;50.228;18.936;2022-10-31T08:06:56;99101.75;;;9.83;78.16
40117;BME280;25829;50.228;18.936;2022-10-31T08:10:05;99101.41;;;9.93;78.20
40117;BME280;25829;50.228;18.936;2022-10-31T08:13:10;99111.09;;;10.07;77.90
40117;BME280;25829;50.228;18.936;2022-10-31T08:16:14;99107.75;;;10.20;77.83
40117;BME280;25829;50.228;18.936;2022-10-31T08:19:25;99100.78;;;10.34;77.59
40117;BME280;25829;50.228;18.936;2022-10-31T08:22:25;99101.91;;;10.46;77.71
40117;BME280;25829;50.228;18.936;2022-10-31T08:25:28;99095.09;;;10.58;77.10
40117;BME280;25829;50.228;18.936;2022-10-31T08:28:30;99105.94;;;10.70;76.94
40117;BME280;25829;50.228;18.936;2022-10-31T08:31:31;99100.16;;;10.81;76.89
40117;BME280;25829;50.228;18.936;2022-10-31T08:34:51;99106.34;;;10.95;76.95
40117;BME280;25829;50.228;18.936;2022-10-31T08:38:12;99104.59;;;11.09;76.92
40117;BME280;25829;50.228;18.936;2022-10-31T08:41:15;99106.50;;;11.22;76.52
40117;BME280;25829;50.228;18.936;2022-10-31T08:44:16;99109.38;;;11.34;76.28
40117;BME280;25829;50.228;18.936;2022-10-31T08:47:17;99110.03;;;11.49;76.68
40117;BME280;25829;50.228;18.936;2022-10-31T08:50:18;99109.09;;;11.63;76.39
40117;BME280;25829;50.228;18.936;2022-10-31T08:53:20;99102.84;;;11.77;75.98
40117;BME280;25829;50.228;18.936;2022-10-31T08:56:33;99110.38;;;11.94;76.14
40117;BME280;25829;50.228;18.936;2022-10-31T08:59:36;99113.31;;;12.12;75.94
40117;BME280;25829;50.228;18.936;2022-10-31T09:03:05;99104.38;;;12.33;75.75
40117;BME280;25829;50.228;18.936;2022-10-31T09:06:07;99115.56;;;12.55;74.90
40117;BME280;25829;50.228;18.936;2022-10-31T09:09:09;99105.78;;;12.76;74.81
40117;BME280;25829;50.228;18.936;2022-10-31T09:12:11;99107.16;;;12.98;74.18
40117;BME280;25829;50.228;18.936;2022-10-31T09:15:42;99105.50;;;13.24;73.37
40117;BME280;25829;50.228;18.936;2022-10-31T09:18:56;99103.16;;;13.54;72.91
40117;BME280;25829;50.228;18.936;2022-10-31T09:21:58;99102.94;;;13.94;72.08
40117;BME280;25829;50.228;18.936;2022-10-31T09:25:53;99106.19;;;14.77;70.31
40117;BME280;25829;50.228;18.936;2022-10-31T09:29:52;99109.34;;;15.78;69.34
40117;BME280;25829;50.228;18.936;2022-10-31T09:32:58;99105.66;;;16.63;68.12
40117;BME280;25829;50.228;18.936;2022-10-31T09:35:59;99104.31;;;17.36;66.78
40117;BME280;25829;50.228;18.936;2022-10-31T09:39:01;99106.25;;;18.09;65.55
40117;BME280;25829;50.228;18.936;2022-10-31T09:52:40;99096.94;;;20.43;61.07
40117;BME280;25829;50.228;18.936;2022-10-31T09:55:47;99096.16;;;20.85;59.94
40117;BME280;25829;50.228;18.936;2022-10-31T09:58:54;99097.38;;;21.15;58.84
40117;BME280;25829;50.228;18.936;2022-10-31T10:02:00;99094.28;;;21.38;58.07
40117;BME280;25829;50.228;18.936;2022-10-31T10:05:09;99095.69;;;21.56;57.60
40117;BME280;25829;50.228;18.936;2022-10-31T10:08:20;99103.50;;;21.73;56.64
40117;BME280;25829;50.228;18.936;2022-10-31T10:12:22;99095.25;;;21.95;52.76
40117;BME280;25829;50.228;18.936;2022-10-31T10:22:47;99090.97;;;22.30;54.81
40117;BME280;25829;50.228;18.936;2022-10-31T10:26:06;99098.25;;;22.14;54.96
40117;BME280;25829;50.228;18.936;2022-10-31T10:32:24;99083.63;;;21.74;53.29
40117;BME280;25829;50.228;18.936;2022-10-31T10:35:33;99079.69;;;21.19;54.38
40117;BME280;25829;50.228;18.936;2022-10-31T10:38:39;99082.47;;;20.82;55.52
40117;BME280;25829;50.228;18.936;2022-10-31T10:41:48;99077.88;;;20.40;55.43
40117;BME280;25829;50.228;18.936;2022-10-31T10:45:17;99084.50;;;20.00;55.09
40117;BME280;25829;50.228;18.936;2022-10-31T10:52:34;99078.97;;;19.35;55.32
40117;BME280;25829;50.228;18.936;2022-10-31T10:58:57;99078.72;;;18.93;56.93
40117;BME280;25829;50.228;18.936;2022-10-31T11:01:58;99070.47;;;18.78;56.90
40117;BME280;25829;50.228;18.936;2022-10-31T11:05:01;99066.03;;;18.67;57.17
40117;BME280;25829;50.228;18.936;2022-10-31T11:08:03;99068.78;;;18.55;57.33
40117;BME280;25829;50.228;18.936;2022-10-31T11:14:17;99064.19;;;18.33;56.52
40117;BME280;25829;50.228;18.936;2022-10-31T11:17:33;99067.28;;;18.25;55.32
40117;BME280;25829;50.228;18.936;2022-10-31T11:20:36;99058.78;;;18.11;56.50
40117;BME280;25829;50.228;18.936;2022-10-31T11:23:36;99054.38;;;18.05;56.32
40117;BME280;25829;50.228;18.936;2022-10-31T11:26:38;99055.69;;;18.03;56.46
40117;BME280;25829;50.228;18.936;2022-10-31T11:29:39;99051.63;;;18.00;56.35
40117;BME280;25829;50.228;18.936;2022-10-31T11:32:48;99046.28;;;18.00;56.15
40117;BME280;25829;50.228;18.936;2022-10-31T11:35:50;99055.56;;;17.98;56.50
40117;BME280;25829;50.228;18.936;2022-10-31T11:38:51;99051.75;;;17.93;56.57
40117;BME280;25829;50.228;18.936;2022-10-31T11:41:54;99050.13;;;17.92;56.91
40117;BME280;25829;50.228;18.936;2022-10-31T11:44:56;99048.84;;;17.95;56.76
40117;BME280;25829;50.228;18.936;2022-10-31T11:47:58;99050.13;;;17.92;56.93
40117;BME280;25829;50.228;18.936;2022-10-31T11:51:04;99050.13;;;17.92;56.67
40117;BME280;25829;50.228;18.936;2022-10-31T11:54:05;99045.06;;;17.91;56.49
40117;BME280;25829;50.228;18.936;2022-10-31T12:00:28;99041.78;;;17.89;56.71
40117;BME280;25829;50.228;18.936;2022-10-31T12:06:59;99035.50;;;17.95;56.94
40117;BME280;25829;50.228;18.936;2022-10-31T12:10:00;99040.84;;;17.95;56.90
40117;BME280;25829;50.228;18.936;2022-10-31T12:13:37;99039.78;;;17.96;55.72
40117;BME280;25829;50.228;18.936;2022-10-31T12:20:16;99038.50;;;17.99;56.82
40117;BME280;25829;50.228;18.936;2022-10-31T12:23:55;99033.50;;;18.02;56.52
40117;BME280;25829;50.228;18.936;2022-10-31T12:27:16;99038.59;;;18.04;56.88
40117;BME280;25829;50.228;18.936;2022-10-31T12:30:23;99030.59;;;18.04;56.68
40117;BME280;25829;50.228;18.936;2022-10-31T12:47:11;99018.41;;;18.08;57.29
40117;BME280;25829;50.228;18.936;2022-10-31T13:00:30;99008.53;;;18.08;56.58
40117;BME280;25829;50.228;18.936;2022-10-31T13:03:30;99016.75;;;18.07;57.01
40117;BME280;25829;50.228;18.936;2022-10-31T13:06:36;99009.00;;;18.05;56.88
40117;BME280;25829;50.228;18.936;2022-10-31T13:10:01;99008.19;;;18.05;56.38
40117;BME280;25829;50.228;18.936;2022-10-31T13:13:13;99007.41;;;18.04;56.63
40117;BME280;25829;50.228;18.936;2022-10-31T13:16:19;99005.53;;;18.05;56.68
40117;BME280;25829;50.228;18.936;2022-10-31T13:19:25;99003.09;;;18.03;56.58
40117;BME280;25829;50.228;18.936;2022-10-31T13:22:30;99000.41;;;18.03;56.58
40117;BME280;25829;50.228;18.936;2022-10-31T13:25:42;99008.75;;;18.07;56.63
40117;BME280;25829;50.228;18.936;2022-10-31T13:29:02;99003.66;;;18.05;56.52
40117;BME280;25829;50.228;18.936;2022-10-31T13:32:06;99003.34;;;18.02;56.83
40117;BME280;25829;50.228;18.936;2022-10-31T13:35:15;98999.63;;;18.03;56.84
40117;BME280;25829;50.228;18.936;2022-10-31T13:38:34;99006.56;;;18.04;56.62
40117;BME280;25829;50.228;18.936;2022-10-31T13:41:48;99013.22;;;18.01;56.95
40117;BME280;25829;50.228;18.936;2022-10-31T13:44:51;99008.06;;;18.00;57.07
40117;BME280;25829;50.228;18.936;2022-10-31T13:51:24;99007.53;;;17.98;56.90
40117;BME280;25829;50.228;18.936;2022-10-31T13:54:33;99004.28;;;17.96;57.15
40117;BME280;25829;50.228;18.936;2022-10-31T13:57:40;98999.41;;;17.92;57.36
40117;BME280;25829;50.228;18.936;2022-10-31T14:00:43;99001.28;;;17.92;57.40
40117;BME280;25829;50.228;18.936;2022-10-31T14:03:47;98999.34;;;17.87;57.29
40117;BME280;25829;50.228;18.936;2022-10-31T14:07:11;99003.03;;;17.86;57.33
40117;BME280;25829;50.228;18.936;2022-10-31T14:10:35;98997.16;;;17.84;57.21
40117;BME280;25829;50.228;18.936;2022-10-31T14:13:41;99003.22;;;17.80;57.68
40117;BME280;25829;50.228;18.936;2022-10-31T14:16:44;98993.84;;;17.77;57.87
40117;BME280;25829;50.228;18.936;2022-10-31T14:23:39;98988.41;;;17.72;57.75
40117;BME280;25829;50.228;18.936;2022-10-31T14:26:54;98992.84;;;17.66;57.69
40117;BME280;25829;50.228;18.936;2022-10-31T14:30:08;98989.03;;;17.62;58.14
40117;BME280;25829;50.228;18.936;2022-10-31T14:33:17;98980.16;;;17.57;58.11
40117;BME280;25829;50.228;18.936;2022-10-31T14:46:41;98989.53;;;17.31;59.34
40117;BME280;25829;50.228;18.936;2022-10-31T14:53:26;98981.13;;;17.10;60.21
40117;BME280;25829;50.228;18.936;2022-10-31T14:56:33;98983.81;;;16.98;60.45
40117;BME280;25829;50.228;18.936;2022-10-31T15:10:19;98974.44;;;16.44;62.17
40117;BME280;25829;50.228;18.936;2022-10-31T15:13:22;98977.31;;;16.31;62.38
40117;BME280;25829;50.228;18.936;2022-10-31T15:16:31;98974.88;;;16.17;62.64
40117;BME280;25829;50.228;18.936;2022-10-31T15:19:34;98968.75;;;16.05;62.93
40117;BME280;25829;50.228;18.936;2022-10-31T15:22:36;98971.97;;;15.95;63.06
40117;BME280;25829;50.228;18.936;2022-10-31T15:25:37;98966.84;;;15.82;63.34
40117;BME280;25829;50.228;18.936;2022-10-31T15:28:38;98971.34;;;15.70;63.70
40117;BME280;25829;50.228;18.936;2022-10-31T15:34:56;98980.06;;;15.47;64.14
40117;BME280;25829;50.228;18.936;2022-10-31T15:37:58;98975.91;;;15.39;64.17
40117;BME280;25829;50.228;18.936;2022-10-31T15:41:03;98975.41;;;15.30;64.46
40117;BME280;25829;50.228;18.936;2022-10-31T15:44:21;98979.38;;;15.21;64.64
40117;BME280;25829;50.228;18.936;2022-10-31T15:47:23;98975.84;;;15.09;64.77
40117;BME280;25829;50.228;18.936;2022-10-31T15:50:44;98976.59;;;14.98;65.14
40117;BME280;25829;50.228;18.936;2022-10-31T15:53:50;98982.31;;;14.83;65.36
40117;BME280;25829;50.228;18.936;2022-10-31T15:56:52;98975.53;;;14.69;65.56
40117;BME280;25829;50.228;18.936;2022-10-31T15:59:53;98977.47;;;14.61;65.59
40117;BME280;25829;50.228;18.936;2022-10-31T16:06:20;98988.47;;;14.40;66.09
40117;BME280;25829;50.228;18.936;2022-10-31T16:09:22;98989.19;;;14.29;66.24
40117;BME280;25829;50.228;18.936;2022-10-31T16:12:28;98988.41;;;14.22;66.42
40117;BME280;25829;50.228;18.936;2022-10-31T16:15:30;98989.72;;;14.12;66.56
40117;BME280;25829;50.228;18.936;2022-10-31T16:18:36;98985.31;;;14.06;66.44
40117;BME280;25829;50.228;18.936;2022-10-31T16:21:38;98990.28;;;13.96;66.50
40117;BME280;25829;50.228;18.936;2022-10-31T16:28:04;98992.84;;;13.78;67.09
40117;BME280;25829;50.228;18.936;2022-10-31T16:31:15;98997.00;;;13.67;67.20
40117;BME280;25829;50.228;18.936;2022-10-31T16:34:25;98987.53;;;13.53;67.68
40117;BME280;25829;50.228;18.936;2022-10-31T16:37:26;98996.97;;;13.42;67.93
40117;BME280;25829;50.228;18.936;2022-10-31T16:40:26;98989.06;;;13.35;67.81
40117;BME280;25829;50.228;18.936;2022-10-31T16:43:27;98994.19;;;13.30;68.11
40117;BME280;25829;50.228;18.936;2022-10-31T16:46:28;98992.00;;;13.21;67.96
40117;BME280;25829;50.228;18.936;2022-10-31T16:49:29;98999.94;;;13.14;68.06
40117;BME280;25829;50.228;18.936;2022-10-31T16:52:30;99006.28;;;13.06;68.47
40117;BME280;25829;50.228;18.936;2022-10-31T16:55:31;98996.94;;;12.97;68.34
40117;BME280;25829;50.228;18.936;2022-10-31T16:58:35;99001.44;;;12.90;68.44
40117;BME280;25829;50.228;18.936;2022-10-31T17:01:36;98996.19;;;12.83;68.72
40117;BME280;25829;50.228;18.936;2022-10-31T17:04:37;98994.81;;;12.74;68.70
40117;BME280;25829;50.228;18.936;2022-10-31T17:07:38;98994.19;;;12.65;69.09
40117;BME280;25829;50.228;18.936;2022-10-31T17:10:40;99000.53;;;12.58;69.38
40117;BME280;25829;50.228;18.936;2022-10-31T17:13:42;99001.56;;;12.50;69.24
40117;BME280;25829;50.228;18.936;2022-10-31T17:16:43;99001.59;;;12.43;69.35
40117;BME280;25829;50.228;18.936;2022-10-31T17:19:46;99006.47;;;12.33;69.74
40117;BME280;25829;50.228;18.936;2022-10-31T17:22:48;99001.78;;;12.22;70.03
40117;BME280;25829;50.228;18.936;2022-10-31T17:25:48;98995.91;;;12.13;70.11
40117;BME280;25829;50.228;18.936;2022-10-31T17:28:49;99002.63;;;12.09;70.00
40117;BME280;25829;50.228;18.936;2022-10-31T17:31:53;98997.13;;;12.04;70.47
40117;BME280;25829;50.228;18.936;2022-10-31T17:34:56;99004.03;;;11.98;70.48
40117;BME280;25829;50.228;18.936;2022-10-31T17:37:57;99005.84;;;11.91;70.33
40117;BME280;25829;50.228;18.936;2022-10-31T17:40:58;98998.31;;;11.88;70.37
40117;BME280;25829;50.228;18.936;2022-10-31T17:43:59;99000.56;;;11.78;70.36
40117;BME280;25829;50.228;18.936;2022-10-31T17:46:59;99002.56;;;11.69;70.88
40117;BME280;25829;50.228;18.936;2022-10-31T17:50:01;98993.41;;;11.65;71.10
40117;BME280;25829;50.228;18.936;2022-10-31T17:53:02;98996.66;;;11.61;71.00
40117;BME280;25829;50.228;18.936;2022-10-31T17:56:05;98997.47;;;11.54;70.61
40117;BME280;25829;50.228;18.936;2022-10-31T17:59:06;99002.56;;;11.49;70.65
40117;BME280;25829;50.228;18.936;2022-10-31T18:02:08;99003.94;;;11.45;70.95
40117;BME280;25829;50.228;18.936;2022-10-31T18:05:09;99005.34;;;11.41;71.04
40117;BME280;25829;50.228;18.936;2022-10-31T18:08:10;99005.16;;;11.36;71.09
40117;BME280;25829;50.228;18.936;2022-10-31T18:11:16;99000.44;;;11.32;70.97
40117;BME280;25829;50.228;18.936;2022-10-31T18:14:19;98997.78;;;11.25;70.98
40117;BME280;25829;50.228;18.936;2022-10-31T18:17:20;99000.44;;;11.18;71.06
40117;BME280;25829;50.228;18.936;2022-10-31T18:20:21;98994.91;;;11.13;71.15
40117;BME280;25829;50.228;18.936;2022-10-31T18:23:21;98999.78;;;11.10;71.19
40117;BME280;25829;50.228;18.936;2022-10-31T18:26:23;99007.88;;;11.01;71.02
40117;BME280;25829;50.228;18.936;2022-10-31T18:29:24;99006.81;;;10.96;71.43